createdAt,value
2023-01-29T00:00:22.595Z,20.50
2023-01-29T00:05:28.453Z,20.43
2023-01-29T00:10:30.181Z,21.13
2023-01-29T00:15:31.609Z,20.03
2023-01-29T00:20:33.800Z,19.03
2023-01-29T00:25:35.309Z,17.33
2023-01-29T00:30:37.429Z,15.33
2023-01-29T00:35:40.946Z,13.07
2023-01-29T00:41:01.257Z,11.30
2023-01-29T00:46:02.854Z,10.80
2023-01-29T00:51:04.693Z,9.67
2023-01-29T00:56:06.607Z,9.57
2023-01-29T01:01:08.044Z,8.73
2023-01-29T01:06:10.986Z,8.10
2023-01-29T01:11:13.429Z,8.45
2023-01-29T01:16:18.620Z,7.23
2023-01-29T01:21:20.113Z,7.57
2023-01-29T01:26:21.696Z,7.90
2023-01-29T01:31:23.271Z,6.70
2023-01-29T01:36:24.717Z,5.87
2023-01-29T01:41:26.689Z,4.97
2023-01-29T01:46:34.840Z,5.23
2023-01-29T01:51:42.584Z,5.60
2023-01-29T01:56:48.601Z,5.10
2023-01-29T02:01:53.984Z,4.37
2023-01-29T02:07:16.134Z,3.80
2023-01-29T02:12:18.561Z,3.27
2023-01-29T02:17:20.554Z,3.03
2023-01-29T02:22:41.873Z,3.10
2023-01-29T02:27:59.368Z,4.17
2023-01-29T02:33:09.325Z,3.90
2023-01-29T02:38:25.067Z,5.57
2023-01-29T02:43:44.961Z,5.60
2023-01-29T02:48:57.744Z,4.70
2023-01-29T02:54:13.535Z,3.70
2023-01-29T02:59:23.356Z,2.70
2023-01-29T03:04:38.595Z,2.10
2023-01-29T03:09:46.453Z,3.10
2023-01-29T03:15:09.830Z,3.77
2023-01-29T03:20:18.192Z,5.07
2023-01-29T03:25:41.532Z,4.97
2023-01-29T03:31:10.348Z,5.60
2023-01-29T03:36:21.134Z,5.10
2023-01-29T03:41:29.424Z,5.27
2023-01-29T03:46:41.806Z,4.77
2023-01-29T03:51:43.166Z,4.97
2023-01-29T03:57:06.145Z,4.23
2023-01-29T04:02:13.847Z,4.60
2023-01-29T04:07:19.052Z,5.83
2023-01-29T04:12:28.860Z,7.80
2023-01-29T04:17:39.676Z,10.27
2023-01-29T04:22:46.142Z,12.37
2023-01-29T04:28:21.961Z,14.10
2023-01-29T04:33:44.771Z,15.13
2023-01-29T04:38:58.382Z,13.33
2023-01-29T04:44:16.599Z,12.03
2023-01-29T04:49:27.220Z,10.83
2023-01-29T04:54:35.431Z,10.37
2023-01-29T04:59:43.362Z,9.77
2023-01-29T05:04:47.492Z,8.80
2023-01-29T05:09:50.753Z,7.10
2023-01-29T05:14:53.421Z,6.33
2023-01-29T05:19:56.606Z,3.00
2023-01-29T05:24:58.080Z,2.80
2023-01-29T05:29:59.521Z,2.60
2023-01-29T05:35:01.115Z,2.53
2023-01-29T05:40:02.539Z,2.23
2023-01-29T05:45:04.937Z,2.40
2023-01-29T05:50:07.174Z,2.10
2023-01-29T05:55:09.705Z,1.63
2023-01-29T06:00:12.997Z,2.20
2023-01-29T06:05:14.465Z,2.30
2023-01-29T06:10:18.069Z,3.07
2023-01-29T06:15:22.218Z,2.80
2023-01-29T06:20:24.899Z,3.50
2023-01-29T06:25:26.346Z,3.13
2023-01-29T06:30:28.438Z,3.73
2023-01-29T06:35:30.133Z,3.30
2023-01-29T06:40:31.725Z,3.73
2023-01-29T06:45:33.237Z,3.33
2023-01-29T06:50:34.746Z,3.23
2023-01-29T06:55:36.254Z,3.90
2023-01-29T07:00:38.472Z,3.60
2023-01-29T07:05:39.945Z,3.43
2023-01-29T07:10:41.369Z,3.80
2023-01-29T07:15:44.377Z,4.50
2023-01-29T07:20:45.805Z,4.93
2023-01-29T07:25:49.739Z,5.17
2023-01-29T07:30:56.197Z,4.72
2023-01-29T07:35:57.659Z,5.30
2023-01-29T07:40:59.064Z,6.43
2023-01-29T07:46:04.449Z,6.60
2023-01-29T07:51:06.457Z,7.30
2023-01-29T07:56:08.084Z,7.57
2023-01-29T08:01:09.699Z,6.87
2023-01-29T08:06:11.193Z,7.03
2023-01-29T08:11:12.674Z,10.20
2023-01-29T08:16:14.417Z,13.57
2023-01-29T08:21:17.046Z,13.40
2023-01-29T08:26:19.060Z,13.17
2023-01-29T08:31:20.810Z,14.90
2023-01-29T08:36:22.418Z,15.47
2023-01-29T08:41:23.919Z,15.30
2023-01-29T08:46:25.464Z,15.83
2023-01-29T08:51:27.205Z,17.93
2023-01-29T08:56:28.651Z,17.20
2023-01-29T09:01:30.183Z,15.53
2023-01-29T09:06:31.704Z,17.77
2023-01-29T09:11:33.110Z,16.90
2023-01-29T09:16:34.674Z,14.83
2023-01-29T09:21:36.113Z,14.57
2023-01-29T09:26:39.686Z,14.67
2023-01-29T09:31:41.312Z,12.97
2023-01-29T09:36:42.882Z,12.40
2023-01-29T09:42:08.186Z,13.70
2023-01-29T09:47:15.425Z,13.27
2023-01-29T09:52:30.358Z,14.30
2023-01-29T09:57:41.565Z,16.17
2023-01-29T10:03:15.541Z,14.03
2023-01-29T10:08:44.923Z,15.15
2023-01-29T10:14:08.755Z,14.57
2023-01-29T10:19:38.984Z,16.10
2023-01-29T10:25:02.256Z,18.30
2023-01-29T10:30:09.662Z,20.13
2023-01-29T10:35:21.605Z,18.60
2023-01-29T10:40:39.606Z,17.70
2023-01-29T10:46:22.743Z,19.40
2023-01-29T10:51:58.458Z,19.10
2023-01-29T10:57:38.436Z,18.17
2023-01-29T11:02:48.445Z,17.30
2023-01-29T11:08:01.740Z,17.93
2023-01-29T11:13:05.309Z,17.40
2023-01-29T11:18:15.809Z,15.23
2023-01-29T11:23:28.375Z,13.70
2023-01-29T11:28:42.130Z,14.23
2023-01-29T11:33:44.678Z,13.82
2023-01-29T11:38:46.256Z,15.23
2023-01-29T11:43:47.820Z,15.57
2023-01-29T11:48:58.983Z,15.53
2023-01-29T11:54:17.134Z,16.23
2023-01-29T11:59:44.269Z,17.30
2023-01-29T12:04:46.779Z,16.23
2023-01-29T12:09:51.984Z,16.63
2023-01-29T12:15:16.406Z,16.37
2023-01-29T12:20:28.097Z,20.53
2023-01-29T12:25:44.862Z,24.87
2023-01-29T12:31:01.443Z,26.53
2023-01-29T12:36:11.690Z,25.30
2023-01-29T12:41:24.981Z,25.00
2023-01-29T12:46:29.534Z,23.63
2023-01-29T12:56:51.573Z,19.73
2023-01-29T13:01:58.893Z,20.63
2023-01-29T13:07:13.477Z,21.47
2023-01-29T13:17:23.356Z,19.97
2023-01-29T13:22:28.591Z,20.70
2023-01-29T13:27:33.089Z,21.67
2023-01-29T13:32:36.097Z,21.42
2023-01-29T13:37:46.843Z,22.50
2023-01-29T13:42:50.412Z,23.13
2023-01-29T13:47:53.138Z,21.30
2023-01-29T13:52:58.051Z,21.00
2023-01-29T13:58:00.957Z,19.60
2023-01-29T14:03:04.574Z,19.87
2023-01-29T14:08:08.700Z,20.53
2023-01-29T14:13:19.193Z,19.75
2023-01-29T14:18:23.840Z,19.17
2023-01-29T14:28:57.945Z,21.20
2023-01-29T14:34:02.270Z,22.17
2023-01-29T14:39:04.317Z,19.50
2023-01-29T14:44:42.849Z,20.83
2023-01-29T14:50:28.720Z,19.67
2023-01-29T14:55:37.810Z,19.37
2023-01-29T15:00:43.545Z,20.90
2023-01-29T15:05:46.538Z,21.27
2023-01-29T15:11:21.065Z,22.47
2023-01-29T15:16:32.182Z,24.03
2023-01-29T15:21:34.626Z,23.40
2023-01-29T15:26:36.597Z,21.37
2023-01-29T15:31:41.871Z,21.63
2023-01-29T15:36:43.559Z,21.37
2023-01-29T15:41:46.021Z,21.83
2023-01-29T15:46:57.902Z,18.63
2023-01-29T15:52:05.659Z,20.50
2023-01-29T15:57:18.589Z,18.30
2023-01-29T16:02:40.939Z,18.43
2023-01-29T16:07:43.429Z,18.77
2023-01-29T16:12:47.404Z,18.63
2023-01-29T16:17:50.362Z,18.65
2023-01-29T16:22:53.369Z,19.73
2023-01-29T16:27:54.882Z,18.07
2023-01-29T16:33:04.822Z,17.10
2023-01-29T16:38:24.121Z,15.87
2023-01-29T16:43:28.471Z,18.53
2023-01-29T16:48:35.164Z,18.00
2023-01-29T16:53:37.453Z,17.63
2023-01-29T16:58:38.923Z,17.13
2023-01-29T17:03:41.917Z,16.93
2023-01-29T17:08:43.860Z,17.33
2023-01-29T17:13:46.152Z,15.27
2023-01-29T17:18:47.695Z,15.60
2023-01-29T17:23:49.280Z,16.47
2023-01-29T17:28:51.612Z,14.47
2023-01-29T17:33:53.082Z,13.67
2023-01-29T17:38:54.519Z,15.07
2023-01-29T17:43:56.030Z,14.90
2023-01-29T17:48:57.626Z,13.77
2023-01-29T17:53:59.105Z,15.37
2023-01-29T17:59:00.875Z,15.77
2023-01-29T18:04:02.338Z,15.67
2023-01-29T18:09:04.321Z,17.17
2023-01-29T18:14:13.686Z,19.00
2023-01-29T18:19:23.109Z,19.27
2023-01-29T18:24:26.415Z,19.77
2023-01-29T18:29:30.101Z,20.80
2023-01-29T18:34:31.612Z,19.17
2023-01-29T18:39:33.110Z,18.67
2023-01-29T18:44:34.640Z,18.13
2023-01-29T18:49:39.050Z,20.10
2023-01-29T18:54:40.576Z,20.15
2023-01-29T18:59:42.035Z,19.87
2023-01-29T19:04:46.146Z,18.43
2023-01-29T19:09:48.365Z,20.57
2023-01-29T19:14:49.862Z,21.10
2023-01-29T19:19:51.320Z,21.57
2023-01-29T19:24:52.733Z,19.10
2023-01-29T19:29:55.898Z,19.43
2023-01-29T19:34:58.417Z,17.93
2023-01-29T19:39:59.934Z,19.40
2023-01-29T19:45:01.448Z,19.73
2023-01-29T19:50:02.935Z,20.43
2023-01-29T19:55:07.240Z,21.50
2023-01-29T20:00:12.094Z,22.83
2023-01-29T20:05:17.172Z,23.17
2023-01-29T20:10:19.474Z,23.63
2023-01-29T20:15:22.389Z,24.67
2023-01-29T20:20:23.975Z,26.33
2023-01-29T20:25:30.509Z,26.10
2023-01-29T20:30:35.924Z,29.53
2023-01-29T20:35:38.647Z,29.30
2023-01-29T20:40:40.134Z,29.57
2023-01-29T20:45:42.211Z,33.57
2023-01-29T20:50:43.802Z,34.67
2023-01-29T20:55:45.746Z,35.73
2023-01-29T21:00:47.652Z,34.20
2023-01-29T21:05:50.211Z,34.13
2023-01-29T21:10:54.637Z,33.73
2023-01-29T21:15:56.205Z,32.60
2023-01-29T21:20:57.658Z,30.57
2023-01-29T21:26:04.314Z,29.40
2023-01-29T21:31:11.196Z,27.53
2023-01-29T21:36:12.730Z,25.53
2023-01-29T21:41:14.160Z,25.20
2023-01-29T21:46:16.752Z,24.43
2023-01-29T21:51:18.947Z,25.40
2023-01-29T21:56:20.501Z,25.47
2023-01-29T22:01:37.696Z,22.23
2023-01-29T22:06:39.980Z,21.83
2023-01-29T22:11:41.664Z,19.60
2023-01-29T22:16:43.107Z,18.17
2023-01-29T22:21:44.879Z,17.33
2023-01-29T22:26:48.428Z,17.20
2023-01-29T22:31:50.082Z,16.37
2023-01-29T22:36:51.546Z,16.57
2023-01-29T22:41:53.037Z,16.47
2023-01-29T22:46:54.556Z,16.00
2023-01-29T22:52:11.424Z,16.10
2023-01-29T22:57:14.692Z,17.90
2023-01-29T23:02:16.187Z,16.80
2023-01-29T23:07:17.681Z,17.37
2023-01-29T23:12:19.139Z,19.37
2023-01-29T23:17:20.694Z,18.43
2023-01-29T23:22:22.119Z,18.40
2023-01-29T23:27:23.602Z,18.23
2023-01-29T23:32:25.184Z,20.27
2023-01-29T23:37:26.770Z,17.97
2023-01-29T23:42:28.194Z,17.53
2023-01-29T23:47:29.650Z,17.87
2023-01-29T23:52:31.160Z,16.25
2023-01-29T23:57:32.576Z,17.70
